createdAt,value
2023-04-16T00:01:38.551Z,100833.41
2023-04-16T00:04:05.626Z,100832.84
2023-04-16T00:06:32.746Z,100838.16
2023-04-16T00:08:59.623Z,100838.75
2023-04-16T00:11:26.389Z,100839.06
2023-04-16T00:13:53.162Z,100841.34
2023-04-16T00:16:20.481Z,100845.97
2023-04-16T00:18:47.293Z,100841.72
2023-04-16T00:21:14.056Z,100839.72
2023-04-16T00:23:40.814Z,100842.75
2023-04-16T00:26:07.576Z,100840.75
2023-04-16T00:28:34.364Z,100847.31
2023-04-16T00:31:01.197Z,100848.28
2023-04-16T00:33:29.957Z,100848.44
2023-04-16T00:35:56.717Z,100858.16
2023-04-16T00:38:23.737Z,100857.31
2023-04-16T00:40:50.745Z,100866.66
2023-04-16T00:43:17.494Z,100860.84
2023-04-16T00:45:44.239Z,100864.44
2023-04-16T00:48:11.030Z,100864.56
2023-04-16T00:50:37.770Z,100867.75
2023-04-16T00:53:04.498Z,100864.91
2023-04-16T00:55:31.333Z,100866.84
2023-04-16T00:57:58.076Z,100862.22
2023-04-16T01:00:26.100Z,100866.28
2023-04-16T01:02:53.028Z,100861.91
2023-04-16T01:05:19.871Z,100864.19
2023-04-16T01:07:46.614Z,100866.72
2023-04-16T01:10:13.383Z,100877.66
2023-04-16T01:12:40.130Z,100874.66
2023-04-16T01:15:06.891Z,100879.06
2023-04-16T01:17:33.699Z,100877.81
2023-04-16T01:20:00.495Z,100878.28
2023-04-16T01:22:27.305Z,100880.53
2023-04-16T01:24:54.064Z,100884.22
2023-04-16T01:27:21.071Z,100874.63
2023-04-16T01:29:47.823Z,100877.94
2023-04-16T01:32:14.571Z,100879.28
2023-04-16T01:34:41.372Z,100875.38
2023-04-16T01:37:08.202Z,100875.31
2023-04-16T01:39:34.948Z,100887.06
2023-04-16T01:42:02.212Z,100881.78
2023-04-16T01:44:29.087Z,100877.06
2023-04-16T01:46:55.984Z,100880.59
2023-04-16T01:49:22.767Z,100882.41
2023-04-16T01:51:49.520Z,100884.53
2023-04-16T01:54:16.380Z,100888.25
2023-04-16T01:56:43.233Z,100886.06
2023-04-16T01:59:10.115Z,100889.16
2023-04-16T02:01:37.291Z,100891.69
2023-04-16T02:04:04.242Z,100894.72
2023-04-16T02:06:31.505Z,100889.47
2023-04-16T02:08:58.270Z,100894.72
2023-04-16T02:11:25.215Z,100895.13
2023-04-16T02:13:51.959Z,100899.09
2023-04-16T02:16:18.757Z,100900.09
2023-04-16T02:18:45.763Z,100900.78
2023-04-16T02:21:12.570Z,100904.06
2023-04-16T02:23:40.960Z,100905.44
2023-04-16T02:26:07.796Z,100904.03
2023-04-16T02:28:34.600Z,100909.47
2023-04-16T02:31:01.401Z,100907.78
2023-04-16T02:33:28.603Z,100916.34
2023-04-16T02:35:55.369Z,100908.84
2023-04-16T02:38:22.173Z,100911.72
2023-04-16T02:40:48.943Z,100922.38
2023-04-16T02:43:15.692Z,100914.06
2023-04-16T02:45:42.601Z,100916.22
2023-04-16T02:48:09.905Z,100923.38
2023-04-16T02:50:36.698Z,100921.19
2023-04-16T02:53:04.249Z,100925.56
2023-04-16T02:55:31.027Z,100926.34
2023-04-16T02:57:57.822Z,100925.88
2023-04-16T03:00:24.626Z,100923.28
2023-04-16T03:02:51.589Z,100934.63
2023-04-16T03:05:18.467Z,100931.31
2023-04-16T03:07:45.303Z,100936.38
2023-04-16T03:10:13.256Z,100938.34
2023-04-16T03:12:40.128Z,100940.88
2023-04-16T03:15:06.914Z,100933.41
2023-04-16T03:17:33.679Z,100930.75
2023-04-16T03:20:00.471Z,100937.53
2023-04-16T03:22:27.253Z,100937.91
2023-04-16T03:24:54.100Z,100944.19
2023-04-16T03:27:20.927Z,100936.09
2023-04-16T03:29:47.727Z,100941.34
2023-04-16T03:32:14.532Z,100943.19
2023-04-16T03:34:41.265Z,100948.34
2023-04-16T03:37:11.705Z,100947.59
2023-04-16T03:39:38.461Z,100944.78
2023-04-16T03:42:05.470Z,100953.03
2023-04-16T03:44:32.241Z,100950.28
2023-04-16T03:46:59.108Z,100953.59
2023-04-16T03:49:25.975Z,100953.56
2023-04-16T03:51:52.753Z,100952.56
2023-04-16T03:54:21.298Z,100967.75
2023-04-16T03:56:51.879Z,100967.44
2023-04-16T03:59:18.647Z,100964.75
2023-04-16T04:01:45.458Z,100969.19
2023-04-16T04:04:12.396Z,100969.03
2023-04-16T04:06:39.351Z,100974.84
2023-04-16T04:09:06.227Z,100973.84
2023-04-16T04:11:32.991Z,100976.94
2023-04-16T04:13:59.755Z,100986.41
2023-04-16T04:16:26.532Z,100982.94
2023-04-16T04:18:53.415Z,100991.28
2023-04-16T04:21:20.405Z,101002.63
2023-04-16T04:23:47.214Z,100995.78
2023-04-16T04:26:14.021Z,101002.25
2023-04-16T04:28:40.882Z,101004.53
2023-04-16T04:31:07.632Z,101006.25
2023-04-16T04:33:34.420Z,101011.97
2023-04-16T04:36:01.475Z,101007.22
2023-04-16T04:38:28.487Z,101013.13
2023-04-16T04:40:55.343Z,101012.56
2023-04-16T04:43:22.186Z,101015.94
2023-04-16T04:45:49.319Z,101018.38
2023-04-16T04:48:16.326Z,101023.91
2023-04-16T04:50:43.212Z,101011.88
2023-04-16T04:53:10.554Z,101020.00
2023-04-16T04:55:37.305Z,101021.59
2023-04-16T04:58:04.478Z,101030.34
2023-04-16T05:00:31.259Z,101024.69
2023-04-16T05:02:58.163Z,101028.91
2023-04-16T05:05:25.092Z,101032.41
2023-04-16T05:07:51.896Z,101038.56
2023-04-16T05:10:18.730Z,101041.06
2023-04-16T05:12:47.154Z,101040.06
2023-04-16T05:15:15.077Z,101036.66
2023-04-16T05:17:41.879Z,101042.34
2023-04-16T05:20:08.793Z,101043.56
2023-04-16T05:22:35.794Z,101059.44
2023-04-16T05:25:02.531Z,101050.13
2023-04-16T05:27:29.305Z,101052.94
2023-04-16T05:29:56.050Z,101052.63
2023-04-16T05:32:22.997Z,101053.16
2023-04-16T05:34:49.766Z,101055.47
2023-04-16T05:37:16.594Z,101054.25
2023-04-16T05:39:43.400Z,101057.25
2023-04-16T05:42:10.292Z,101057.16
2023-04-16T05:44:37.131Z,101055.69
2023-04-16T05:47:03.889Z,101069.22
2023-04-16T05:49:30.656Z,101070.63
2023-04-16T05:51:57.401Z,101068.97
2023-04-16T05:54:24.244Z,101074.78
2023-04-16T05:56:50.999Z,101072.34
2023-04-16T05:59:17.734Z,101078.50
2023-04-16T06:01:44.476Z,101079.53
2023-04-16T06:04:11.364Z,101081.38
2023-04-16T06:06:38.356Z,101075.97
2023-04-16T06:09:05.189Z,101080.22
2023-04-16T06:11:32.394Z,101077.94
2023-04-16T06:13:59.662Z,101079.59
2023-04-16T06:16:26.520Z,101088.84
2023-04-16T06:18:53.349Z,101083.97
2023-04-16T06:21:20.218Z,101093.81
2023-04-16T06:23:46.944Z,101096.81
2023-04-16T06:26:13.743Z,101101.63
2023-04-16T06:28:40.588Z,101098.03
2023-04-16T06:31:07.363Z,101100.66
2023-04-16T06:33:34.146Z,101108.19
2023-04-16T06:36:00.875Z,101109.63
2023-04-16T06:38:27.625Z,101118.06
2023-04-16T06:40:54.444Z,101114.59
2023-04-16T06:43:21.544Z,101112.00
2023-04-16T06:45:48.375Z,101110.19
2023-04-16T06:48:15.366Z,101117.78
2023-04-16T06:50:42.128Z,101113.16
2023-04-16T06:53:08.909Z,101109.84
2023-04-16T06:55:35.778Z,101117.34
2023-04-16T06:58:02.504Z,101123.16
2023-04-16T07:00:29.241Z,101128.22
2023-04-16T07:02:58.419Z,101121.50
2023-04-16T07:05:25.495Z,101126.81
2023-04-16T07:07:52.237Z,101128.53
2023-04-16T07:10:19.017Z,101122.13
2023-04-16T07:12:45.751Z,101127.41
2023-04-16T07:15:12.559Z,101130.03
2023-04-16T07:17:39.312Z,101127.91
2023-04-16T07:20:06.100Z,101142.63
2023-04-16T07:22:32.845Z,101151.59
2023-04-16T07:24:59.652Z,101150.09
2023-04-16T07:27:26.399Z,101151.69
2023-04-16T07:29:54.651Z,101152.34
2023-04-16T07:32:22.333Z,101155.44
2023-04-16T07:34:49.132Z,101162.94
2023-04-16T07:37:15.877Z,101157.44
2023-04-16T07:39:42.629Z,101169.66
2023-04-16T07:42:09.404Z,101160.72
2023-04-16T07:44:36.192Z,101164.94
2023-04-16T07:47:05.279Z,101162.56
2023-04-16T07:49:32.496Z,101168.16
2023-04-16T07:51:59.246Z,101169.41
2023-04-16T07:54:27.813Z,101173.22
2023-04-16T07:56:55.912Z,101177.81
2023-04-16T07:59:24.380Z,101175.22
2023-04-16T08:01:51.429Z,101176.75
2023-04-16T08:04:24.281Z,101179.91
2023-04-16T08:06:51.488Z,101175.34
2023-04-16T08:09:18.309Z,101179.63
2023-04-16T08:11:45.122Z,101189.75
2023-04-16T08:14:11.867Z,101182.63
2023-04-16T08:16:40.402Z,101191.41
2023-04-16T08:19:07.268Z,101201.72
2023-04-16T08:21:34.181Z,101194.31
2023-04-16T08:24:00.947Z,101199.09
2023-04-16T08:26:27.746Z,101201.97
2023-04-16T08:28:54.558Z,101203.72
2023-04-16T08:31:21.409Z,101210.41
2023-04-16T08:33:48.168Z,101213.78
2023-04-16T08:36:14.902Z,101219.63
2023-04-16T08:38:41.695Z,101216.88
2023-04-16T08:41:08.432Z,101224.25
2023-04-16T08:43:35.196Z,101223.13
2023-04-16T08:46:01.986Z,101229.22
2023-04-16T08:48:28.730Z,101226.28
2023-04-16T08:50:55.748Z,101231.88
2023-04-16T08:53:22.927Z,101233.88
2023-04-16T08:55:50.284Z,101229.75
2023-04-16T08:58:17.019Z,101232.25
2023-04-16T09:00:43.851Z,101235.06
2023-04-16T09:03:11.177Z,101237.94
2023-04-16T09:05:38.034Z,101236.13
2023-04-16T09:08:04.804Z,101234.31
2023-04-16T09:10:31.568Z,101231.44
2023-04-16T09:12:58.457Z,101234.81
2023-04-16T09:15:25.695Z,101243.19
2023-04-16T09:17:52.862Z,101244.44
2023-04-16T09:20:19.660Z,101253.31
2023-04-16T09:22:46.504Z,101249.69
2023-04-16T09:25:13.235Z,101256.22
2023-04-16T09:27:40.157Z,101254.06
2023-04-16T09:30:06.925Z,101256.56
2023-04-16T09:32:33.745Z,101253.53
2023-04-16T09:35:00.679Z,101257.75
2023-04-16T09:37:29.396Z,101263.84
2023-04-16T09:39:56.159Z,101266.78
2023-04-16T09:42:23.146Z,101266.75
2023-04-16T09:44:49.915Z,101273.25
2023-04-16T09:47:16.867Z,101273.69
2023-04-16T09:49:43.638Z,101274.53
2023-04-16T09:52:10.419Z,101277.38
2023-04-16T09:54:37.154Z,101280.09
2023-04-16T09:57:03.908Z,101280.94
2023-04-16T09:59:33.767Z,101282.34
2023-04-16T10:02:14.374Z,101286.66
2023-04-16T10:04:42.755Z,101285.44
2023-04-16T10:07:09.524Z,101292.94
2023-04-16T10:09:36.259Z,101297.38
2023-04-16T10:12:03.046Z,101291.88
2023-04-16T10:14:29.817Z,101292.06
2023-04-16T10:16:56.645Z,101294.34
2023-04-16T10:19:23.507Z,101296.44
2023-04-16T10:21:50.254Z,101290.91
2023-04-16T10:24:17.873Z,101301.63
2023-04-16T10:26:44.660Z,101310.69
2023-04-16T10:29:11.572Z,101303.94
2023-04-16T10:31:38.436Z,101304.31
2023-04-16T10:34:05.200Z,101303.44
2023-04-16T10:36:31.951Z,101311.47
2023-04-16T10:38:58.758Z,101313.50
2023-04-16T10:41:25.595Z,101305.09
2023-04-16T10:43:52.401Z,101300.34
2023-04-16T10:46:19.299Z,101302.88
2023-04-16T10:48:50.352Z,101303.78
2023-04-16T10:51:17.762Z,101297.25
2023-04-16T10:53:44.524Z,101311.16
2023-04-16T10:56:14.138Z,101303.13
2023-04-16T10:58:40.884Z,101303.16
2023-04-16T11:01:07.621Z,101308.59
2023-04-16T11:03:34.517Z,101305.41
2023-04-16T11:06:01.312Z,101303.28
2023-04-16T11:08:28.050Z,101306.44
2023-04-16T11:10:54.866Z,101318.06
2023-04-16T11:13:21.678Z,101317.19
2023-04-16T11:15:48.433Z,101318.66
2023-04-16T11:18:15.434Z,101315.44
2023-04-16T11:20:42.195Z,101318.34
2023-04-16T11:23:08.942Z,101322.56
2023-04-16T11:25:35.742Z,101323.81
2023-04-16T11:28:02.575Z,101318.28
2023-04-16T11:30:29.385Z,101327.56
2023-04-16T11:32:56.395Z,101335.13
2023-04-16T11:35:23.236Z,101332.19
2023-04-16T11:37:49.992Z,101332.22
2023-04-16T11:40:16.836Z,101339.78
2023-04-16T11:42:44.161Z,101338.88
2023-04-16T11:45:11.138Z,101342.16
2023-04-16T11:47:37.982Z,101331.88
2023-04-16T11:50:04.806Z,101341.88
2023-04-16T11:52:31.589Z,101338.09
2023-04-16T11:54:58.605Z,101334.19
2023-04-16T11:57:25.584Z,101339.06
2023-04-16T12:00:01.743Z,101347.50
2023-04-16T12:02:30.404Z,101343.91
2023-04-16T12:04:57.293Z,101342.59
2023-04-16T12:07:24.127Z,101344.69
2023-04-16T12:09:50.973Z,101346.13
2023-04-16T12:12:18.252Z,101348.28
2023-04-16T12:14:45.114Z,101343.81
2023-04-16T12:17:11.935Z,101345.88
2023-04-16T12:19:38.723Z,101353.28
2023-04-16T12:22:05.455Z,101350.09
2023-04-16T12:24:32.187Z,101350.94
2023-04-16T12:27:02.915Z,101344.53
2023-04-16T12:29:29.777Z,101356.38
2023-04-16T12:31:56.518Z,101357.16
2023-04-16T12:34:29.113Z,101358.63
2023-04-16T12:37:10.486Z,101359.31
2023-04-16T12:39:37.231Z,101356.38
2023-04-16T12:42:05.787Z,101361.00
2023-04-16T12:44:32.613Z,101360.34
2023-04-16T12:46:59.379Z,101357.19
2023-04-16T12:49:26.207Z,101361.00
2023-04-16T12:51:53.040Z,101366.56
2023-04-16T12:54:19.815Z,101364.66
2023-04-16T12:56:46.661Z,101368.00
2023-04-16T12:59:13.480Z,101366.72
2023-04-16T13:01:40.425Z,101363.75
2023-04-16T13:04:07.711Z,101366.25
2023-04-16T13:06:36.800Z,101370.03
2023-04-16T13:09:04.576Z,101368.72
2023-04-16T13:11:31.319Z,101371.69
2023-04-16T13:13:58.249Z,101375.09
2023-04-16T13:16:25.064Z,101379.25
2023-04-16T13:18:51.863Z,101378.00
2023-04-16T13:21:18.657Z,101379.69
2023-04-16T13:23:45.598Z,101382.44
2023-04-16T13:26:14.968Z,101387.22
2023-04-16T13:28:41.753Z,101385.34
2023-04-16T13:31:08.541Z,101388.47
2023-04-16T13:33:35.376Z,101374.78
2023-04-16T13:36:02.118Z,101378.50
2023-04-16T13:38:28.870Z,101381.63
2023-04-16T13:40:55.662Z,101386.69
2023-04-16T13:43:22.432Z,101380.22
2023-04-16T13:45:49.180Z,101383.03
2023-04-16T13:48:17.645Z,101388.13
2023-04-16T13:50:44.480Z,101383.25
2023-04-16T13:53:11.430Z,101373.94
2023-04-16T13:55:38.290Z,101380.66
2023-04-16T13:58:07.036Z,101375.56
2023-04-16T14:00:33.812Z,101379.38
2023-04-16T14:03:00.824Z,101375.13
2023-04-16T14:05:27.738Z,101377.66
2023-04-16T14:07:54.481Z,101386.31
2023-04-16T14:10:21.265Z,101382.22
2023-04-16T14:12:48.054Z,101392.03
2023-04-16T14:15:15.038Z,101389.44
2023-04-16T14:17:42.685Z,101382.22
2023-04-16T14:20:09.631Z,101382.00
2023-04-16T14:22:36.498Z,101383.91
2023-04-16T14:25:03.341Z,101390.03
2023-04-16T14:27:30.196Z,101395.50
2023-04-16T14:29:57.494Z,101390.28
2023-04-16T14:32:24.269Z,101382.72
2023-04-16T14:34:51.044Z,101384.03
2023-04-16T14:37:17.805Z,101387.25
2023-04-16T14:39:44.579Z,101386.59
2023-04-16T14:42:11.385Z,101383.88
2023-04-16T14:44:38.176Z,101382.44
2023-04-16T14:47:04.969Z,101384.75
2023-04-16T14:49:31.829Z,101390.44
2023-04-16T14:51:58.767Z,101384.06
2023-04-16T14:54:26.353Z,101383.19
2023-04-16T14:56:53.116Z,101392.53
2023-04-16T14:59:20.130Z,101397.97
2023-04-16T15:01:47.030Z,101393.28
2023-04-16T15:04:13.973Z,101389.69
2023-04-16T15:06:42.005Z,101394.56
2023-04-16T15:09:09.430Z,101401.75
2023-04-16T15:11:36.454Z,101393.22
2023-04-16T15:14:03.200Z,101390.44
2023-04-16T15:16:30.053Z,101390.22
2023-04-16T15:18:56.879Z,101392.59
2023-04-16T15:21:23.611Z,101394.47
2023-04-16T15:23:50.348Z,101392.66
2023-04-16T15:26:17.327Z,101387.56
2023-04-16T15:28:44.086Z,101388.91
2023-04-16T15:31:10.929Z,101387.72
2023-04-16T15:33:37.731Z,101396.56
2023-04-16T15:36:04.483Z,101395.94
2023-04-16T15:38:31.221Z,101399.38
2023-04-16T15:40:58.412Z,101396.38
2023-04-16T15:43:25.333Z,101397.84
2023-04-16T15:45:52.201Z,101406.94
2023-04-16T15:48:18.978Z,101406.94
2023-04-16T15:50:46.150Z,101395.69
2023-04-16T15:53:12.945Z,101406.66
2023-04-16T15:55:39.768Z,101405.56
2023-04-16T15:58:06.578Z,101400.09
2023-04-16T16:00:33.329Z,101412.75
2023-04-16T16:03:00.736Z,101409.38
2023-04-16T16:05:27.544Z,101406.59
2023-04-16T16:07:54.292Z,101415.25
2023-04-16T16:10:21.303Z,101412.66
2023-04-16T16:12:48.066Z,101416.47
2023-04-16T16:15:15.126Z,101411.97
2023-04-16T16:17:41.997Z,101411.09
2023-04-16T16:20:10.453Z,101413.16
2023-04-16T16:22:38.057Z,101415.63
2023-04-16T16:25:05.178Z,101415.31
2023-04-16T16:27:31.952Z,101414.50
2023-04-16T16:30:00.703Z,101417.72
2023-04-16T16:32:27.572Z,101420.94
2023-04-16T16:34:54.346Z,101409.94
2023-04-16T16:37:21.088Z,101418.19
2023-04-16T16:39:47.895Z,101424.28
2023-04-16T16:42:18.548Z,101426.84
2023-04-16T16:44:47.278Z,101434.25
2023-04-16T16:47:14.127Z,101431.06
2023-04-16T16:49:40.918Z,101433.13
2023-04-16T16:52:07.663Z,101435.66
2023-04-16T16:54:34.445Z,101435.25
2023-04-16T16:57:02.561Z,101437.34
2023-04-16T16:59:29.716Z,101444.31
2023-04-16T17:01:56.565Z,101443.66
2023-04-16T17:04:23.588Z,101439.41
2023-04-16T17:06:50.685Z,101447.03
2023-04-16T17:09:17.651Z,101449.13
2023-04-16T17:11:44.395Z,101444.69
2023-04-16T17:14:11.278Z,101451.72
2023-04-16T17:16:38.145Z,101457.38
2023-04-16T17:19:05.225Z,101457.47
2023-04-16T17:21:35.012Z,101457.03
2023-04-16T17:24:01.938Z,101458.84
2023-04-16T17:26:28.928Z,101460.41
2023-04-16T17:28:57.428Z,101464.28
2023-04-16T17:31:26.309Z,101471.50
2023-04-16T17:33:53.745Z,101474.25
2023-04-16T17:36:22.714Z,101473.00
2023-04-16T17:38:50.500Z,101472.56
2023-04-16T17:41:17.230Z,101477.19
2023-04-16T17:43:43.980Z,101485.03
2023-04-16T17:46:11.693Z,101488.19
2023-04-16T17:48:38.566Z,101491.81
2023-04-16T17:51:05.435Z,101494.16
2023-04-16T17:53:32.195Z,101492.66
2023-04-16T17:55:58.976Z,101494.50
2023-04-16T17:58:26.464Z,101497.09
2023-04-16T18:00:53.254Z,101501.25
2023-04-16T18:03:21.943Z,101500.44
2023-04-16T18:05:49.037Z,101506.75
2023-04-16T18:08:16.145Z,101510.25
2023-04-16T18:10:42.903Z,101514.47
2023-04-16T18:13:09.644Z,101508.94
2023-04-16T18:15:37.042Z,101518.38
2023-04-16T18:18:03.837Z,101517.41
2023-04-16T18:20:30.735Z,101519.56
2023-04-16T18:22:57.618Z,101527.13
2023-04-16T18:25:33.578Z,101529.72
2023-04-16T18:28:02.021Z,101524.84
2023-04-16T18:30:28.939Z,101541.16
2023-04-16T18:33:25.291Z,101542.44
2023-04-16T18:35:42.502Z,101541.59
2023-04-16T18:38:09.292Z,101543.94
2023-04-16T18:40:36.087Z,101542.84
2023-04-16T18:43:02.858Z,101537.75
2023-04-16T18:45:29.596Z,101542.00
2023-04-16T18:47:59.177Z,101540.31
2023-04-16T18:50:26.042Z,101546.47
2023-04-16T18:52:52.843Z,101556.63
2023-04-16T18:55:19.966Z,101554.69
2023-04-16T18:57:46.733Z,101563.16
2023-04-16T19:00:13.704Z,101557.00
2023-04-16T19:02:40.686Z,101563.38
2023-04-16T19:05:08.135Z,101557.28
2023-04-16T19:07:35.242Z,101557.53
2023-04-16T19:10:05.120Z,101563.00
2023-04-16T19:12:31.887Z,101552.66
2023-04-16T19:14:58.645Z,101562.31
2023-04-16T19:17:25.517Z,101560.31
2023-04-16T19:19:52.354Z,101564.81
2023-04-16T19:22:19.083Z,101568.25
2023-04-16T19:24:46.145Z,101567.00
2023-04-16T19:27:12.916Z,101567.84
2023-04-16T19:29:40.743Z,101570.38
2023-04-16T19:32:07.541Z,101571.66
2023-04-16T19:34:34.302Z,101575.25
2023-04-16T19:37:01.137Z,101568.50
2023-04-16T19:39:28.069Z,101574.03
2023-04-16T19:41:54.835Z,101578.66
2023-04-16T19:44:23.021Z,101571.69
2023-04-16T19:46:49.783Z,101569.16
2023-04-16T19:49:16.558Z,101569.75
2023-04-16T19:51:43.308Z,101576.75
2023-04-16T19:54:10.123Z,101570.78
2023-04-16T19:56:36.883Z,101574.84
2023-04-16T19:59:03.656Z,101576.63
2023-04-16T20:01:33.534Z,101568.56
2023-04-16T20:04:00.434Z,101578.72
2023-04-16T20:06:27.680Z,101582.44
2023-04-16T20:08:54.676Z,101579.84
2023-04-16T20:11:21.456Z,101575.31
2023-04-16T20:13:48.281Z,101575.78
2023-04-16T20:16:15.118Z,101578.81
2023-04-16T20:18:42.172Z,101584.31
2023-04-16T20:21:08.960Z,101590.28
2023-04-16T20:23:35.699Z,101580.34
2023-04-16T20:26:02.491Z,101585.22
2023-04-16T20:28:29.288Z,101597.91
2023-04-16T20:30:56.114Z,101586.47
2023-04-16T20:33:22.936Z,101587.75
2023-04-16T20:35:51.914Z,101585.91
2023-04-16T20:38:23.680Z,101585.25
2023-04-16T20:40:57.959Z,101592.44
2023-04-16T20:43:25.960Z,101589.44
2023-04-16T20:45:52.809Z,101593.72
2023-04-16T20:48:19.648Z,101596.25
2023-04-16T20:50:46.476Z,101593.69
2023-04-16T20:53:13.250Z,101595.59
2023-04-16T20:55:40.181Z,101588.19
2023-04-16T20:58:06.977Z,101588.84
2023-04-16T21:00:33.931Z,101593.13
2023-04-16T21:03:00.988Z,101599.78
2023-04-16T21:05:29.880Z,101606.50
2023-04-16T21:07:56.646Z,101601.81
2023-04-16T21:10:23.421Z,101601.25
2023-04-16T21:12:50.204Z,101601.13
2023-04-16T21:15:16.960Z,101603.34
2023-04-16T21:17:43.753Z,101599.78
2023-04-16T21:20:13.303Z,101608.28
2023-04-16T21:22:40.108Z,101613.34
2023-04-16T21:25:06.955Z,101609.56
2023-04-16T21:27:33.740Z,101617.63
2023-04-16T21:30:00.696Z,101608.91
2023-04-16T21:32:27.476Z,101615.53
2023-04-16T21:34:54.274Z,101616.16
2023-04-16T21:37:21.082Z,101614.06
2023-04-16T21:39:47.894Z,101617.44
2023-04-16T21:42:14.655Z,101612.56
2023-04-16T21:44:41.406Z,101617.00
2023-04-16T21:47:08.327Z,101617.41
2023-04-16T21:49:35.095Z,101616.97
2023-04-16T21:52:02.256Z,101614.66
2023-04-16T21:54:29.170Z,101625.25
2023-04-16T21:56:57.076Z,101620.50
2023-04-16T21:59:23.822Z,101611.66
2023-04-16T22:01:50.604Z,101605.56
2023-04-16T22:04:17.722Z,101611.56
2023-04-16T22:06:46.129Z,101617.97
2023-04-16T22:09:13.188Z,101609.44
2023-04-16T22:11:40.623Z,101606.56
2023-04-16T22:14:08.209Z,101609.91
2023-04-16T22:16:35.808Z,101614.34
2023-04-16T22:19:02.702Z,101612.06
2023-04-16T22:21:29.456Z,101607.66
2023-04-16T22:23:56.220Z,101612.72
2023-04-16T22:26:23.001Z,101618.47
2023-04-16T22:28:49.749Z,101606.81
2023-04-16T22:31:16.630Z,101619.50
2023-04-16T22:33:43.416Z,101609.78
2023-04-16T22:36:10.274Z,101616.97
2023-04-16T22:38:38.613Z,101606.44
2023-04-16T22:41:05.426Z,101615.13
2023-04-16T22:43:32.194Z,101609.81
2023-04-16T22:45:58.954Z,101612.56
2023-04-16T22:48:25.759Z,101615.75
2023-04-16T22:50:52.491Z,101603.88
2023-04-16T22:53:19.230Z,101610.63
2023-04-16T22:55:46.064Z,101608.72
2023-04-16T22:58:12.812Z,101617.84
2023-04-16T23:00:39.632Z,101610.41
2023-04-16T23:03:06.514Z,101614.31
2023-04-16T23:05:34.427Z,101610.56
2023-04-16T23:08:01.175Z,101625.25
2023-04-16T23:10:27.953Z,101620.78
2023-04-16T23:12:54.681Z,101624.34
2023-04-16T23:15:21.423Z,101625.66
2023-04-16T23:17:48.226Z,101623.16
2023-04-16T23:20:15.490Z,101626.22
2023-04-16T23:22:42.220Z,101627.75
2023-04-16T23:25:09.039Z,101630.91
2023-04-16T23:27:35.808Z,101631.34
2023-04-16T23:30:02.967Z,101633.69
2023-04-16T23:32:29.771Z,101632.22
2023-04-16T23:34:56.627Z,101635.63
2023-04-16T23:37:23.391Z,101630.09
2023-04-16T23:39:50.178Z,101629.09
2023-04-16T23:42:17.259Z,101627.34
2023-04-16T23:44:44.006Z,101628.69
2023-04-16T23:47:10.769Z,101634.41
2023-04-16T23:49:37.569Z,101629.09
2023-04-16T23:52:04.364Z,101636.09
2023-04-16T23:54:31.201Z,101638.19
2023-04-16T23:56:57.954Z,101640.75
2023-04-16T23:59:24.750Z,101640.72
